Time;durP1;ratioP1;P1;durP2;ratioP2;P2;SDS_P1;SDS_P2;PMS_P1;PMS_P2;Temp;Humidity;BMP_temperature;BMP_pressure;BME280_temperature;BME280_humidity;BME280_pressure;Samples;Min_cycle;Max_cycle;Signal;HPM_P1;HPM_P2
2021/09/08 00:01:31;;;;;;;11.70;10.60;;;16.80;99.90;;;;;;4918132;29;20644;-76
2021/09/08 00:03:59;;;;;;;11.33;10.20;;;16.70;99.90;;;;;;4938889;29;20622;-75
2021/09/08 00:06:25;;;;;;;11.00;10.10;;;16.70;99.90;;;;;;4934735;28;20239;-74
2021/09/08 00:08:51;;;;;;;11.37;10.47;;;16.70;99.90;;;;;;4935249;29;21014;-75
2021/09/08 00:11:16;;;;;;;11.63;10.63;;;16.60;99.90;;;;;;4936450;28;20803;-75
2021/09/08 00:13:44;;;;;;;11.10;10.17;;;16.60;99.90;;;;;;4937262;28;20188;-76
2021/09/08 00:16:10;;;;;;;11.30;10.20;;;16.60;99.90;;;;;;4941933;28;20648;-76
2021/09/08 00:18:35;;;;;;;11.37;10.27;;;16.60;99.90;;;;;;4940020;28;20666;-74
2021/09/08 00:21:01;;;;;;;12.00;10.87;;;16.60;99.90;;;;;;4943762;28;20216;-74
2021/09/08 00:23:27;;;;;;;11.30;10.37;;;16.60;99.90;;;;;;4937970;28;20192;-74
2021/09/08 00:25:52;;;;;;;10.93;10.03;;;16.50;99.90;;;;;;4928646;28;20230;-75
2021/09/08 00:28:18;;;;;;;11.73;10.73;;;16.60;99.90;;;;;;4926537;29;20210;-74
2021/09/08 00:30:43;;;;;;;11.63;10.57;;;16.50;99.90;;;;;;4941649;28;20204;-74
2021/09/08 00:33:09;;;;;;;12.00;11.00;;;16.50;99.90;;;;;;4937674;28;20616;-75
2021/09/08 00:35:34;;;;;;;11.77;10.57;;;16.50;99.90;;;;;;4942136;28;20672;-76
2021/09/08 00:38:00;;;;;;;11.43;10.40;;;16.50;99.90;;;;;;4924955;28;20203;-74
2021/09/08 00:40:25;;;;;;;11.83;10.80;;;16.50;99.90;;;;;;4941371;28;20687;-73
2021/09/08 00:42:54;;;;;;;11.27;10.27;;;16.40;99.90;;;;;;4939722;28;20258;-74
2021/09/08 00:45:19;;;;;;;10.83;9.83;;;16.40;99.90;;;;;;4941710;28;20242;-75
2021/09/08 00:47:45;;;;;;;10.97;10.00;;;16.40;99.90;;;;;;4936975;28;20623;-76
2021/09/08 00:50:11;;;;;;;11.63;10.63;;;16.30;99.90;;;;;;4942687;28;20247;-75
2021/09/08 00:52:38;;;;;;;11.60;10.60;;;16.30;99.90;;;;;;4940730;29;20201;-75
2021/09/08 00:55:06;;;;;;;12.13;11.03;;;16.30;99.90;;;;;;4937547;28;20658;-74
2021/09/08 00:57:33;;;;;;;11.80;10.73;;;16.30;99.90;;;;;;4942849;28;21439;-74
2021/09/08 00:59:58;;;;;;;12.13;11.07;;;16.30;99.90;;;;;;4940338;28;20630;-75
2021/09/08 01:02:24;;;;;;;11.63;10.67;;;16.30;99.90;;;;;;4940894;28;20623;-74
2021/09/08 01:04:49;;;;;;;11.37;10.33;;;16.20;99.90;;;;;;4945587;28;20223;-75
2021/09/08 01:07:15;;;;;;;11.10;9.97;;;16.20;99.90;;;;;;4941063;28;20279;-74
2021/09/08 01:09:40;;;;;;;12.33;11.10;;;16.30;99.90;;;;;;4940992;28;20199;-74
2021/09/08 01:12:07;;;;;;;12.40;11.30;;;16.20;99.90;;;;;;4922865;29;20254;-73
2021/09/08 01:14:33;;;;;;;11.70;10.70;;;16.20;99.90;;;;;;4913549;28;20461;-74
2021/09/08 01:17:02;;;;;;;11.80;10.70;;;16.20;99.90;;;;;;4941656;29;20603;-75
2021/09/08 01:19:27;;;;;;;11.73;10.63;;;16.10;99.90;;;;;;4939968;29;20615;-75
2021/09/08 01:21:53;;;;;;;10.80;9.90;;;16.00;99.90;;;;;;4928775;29;20674;-74
2021/09/08 01:24:24;;;;;;;11.87;10.77;;;16.00;99.90;;;;;;4936138;28;20198;-75
2021/09/08 01:26:50;;;;;;;11.97;10.83;;;16.00;99.90;;;;;;4939891;28;20696;-75
2021/09/08 01:29:18;;;;;;;11.00;10.10;;;16.00;99.90;;;;;;4945505;29;20647;-74
2021/09/08 01:31:50;;;;;;;11.77;10.77;;;16.00;99.90;;;;;;4947348;28;20631;-74
2021/09/08 01:34:16;;;;;;;10.13;9.33;;;15.90;99.90;;;;;;4946559;28;20751;-74
2021/09/08 01:36:41;;;;;;;10.53;9.60;;;15.90;99.90;;;;;;4946048;28;20744;-74
2021/09/08 01:39:16;;;;;;;11.77;10.77;;;15.90;99.90;;;;;;4943950;28;20184;-74
2021/09/08 01:41:42;;;;;;;11.70;10.70;;;15.80;99.90;;;;;;4947278;28;20315;-74
2021/09/08 01:44:09;;;;;;;11.67;10.50;;;15.80;99.90;;;;;;4928507;29;20615;-75
2021/09/08 01:46:37;;;;;;;11.70;10.70;;;15.80;99.90;;;;;;4945477;28;20827;-75
2021/09/08 01:49:03;;;;;;;10.93;9.93;;;15.90;99.90;;;;;;4946609;28;20619;-76
2021/09/08 01:51:31;;;;;;;11.50;10.50;;;15.90;99.90;;;;;;4945889;28;20658;-75
2021/09/08 01:53:59;;;;;;;11.63;10.53;;;15.90;99.90;;;;;;4948631;29;20207;-74
2021/09/08 01:56:25;;;;;;;11.60;10.60;;;15.90;99.90;;;;;;4933980;28;20636;-76
2021/09/08 01:58:50;;;;;;;14.17;10.33;;;15.90;99.90;;;;;;4948275;29;21028;-74
2021/09/08 02:01:16;;;;;;;11.43;10.43;;;15.90;99.90;;;;;;4946021;28;20211;-74
2021/09/08 02:03:43;;;;;;;11.10;10.20;;;15.90;99.90;;;;;;4945131;28;20195;-74
2021/09/08 02:06:26;;;;;;;11.63;10.63;;;15.90;99.90;;;;;;4942565;28;20230;-75
2021/09/08 02:08:53;;;;;;;10.90;10.00;;;15.90;99.90;;;;;;4947091;29;20606;-74
2021/09/08 02:11:19;;;;;;;11.77;10.57;;;15.90;99.90;;;;;;4945287;28;20662;-76
2021/09/08 02:13:45;;;;;;;11.60;10.50;;;15.90;99.90;;;;;;4947507;29;20664;-74
2021/09/08 02:16:15;;;;;;;11.23;10.33;;;15.90;99.90;;;;;;4946115;28;20219;-74
2021/09/08 02:18:50;;;;;;;12.30;11.10;;;15.90;99.90;;;;;;4965742;29;20611;-75
2021/09/08 02:21:19;;;;;;;11.33;10.30;;;16.00;99.90;;;;;;4961937;28;20646;-75
2021/09/08 02:23:47;;;;;;;11.37;10.37;;;16.00;99.90;;;;;;4936818;29;20609;-74
2021/09/08 02:26:12;;;;;;;10.63;9.63;;;16.10;99.90;;;;;;4948762;28;20619;-74
2021/09/08 02:28:41;;;;;;;11.20;10.17;;;16.10;99.90;;;;;;4946019;28;20761;-75
2021/09/08 02:31:06;;;;;;;11.60;10.60;;;16.10;99.90;;;;;;4948388;28;20206;-74
2021/09/08 02:33:35;;;;;;;10.60;9.70;;;16.10;99.90;;;;;;4950607;29;20706;-74
2021/09/08 02:36:00;;;;;;;10.07;9.17;;;16.10;99.90;;;;;;4946393;28;20231;-75
2021/09/08 02:38:30;;;;;;;11.47;10.43;;;16.10;99.90;;;;;;4929922;29;20700;-74
2021/09/08 02:41:00;;;;;;;10.97;10.07;;;16.10;99.90;;;;;;4925837;29;20207;-74
2021/09/08 02:43:28;;;;;;;10.30;9.30;;;16.10;99.90;;;;;;4927442;29;20701;-74
2021/09/08 02:45:59;;;;;;;10.87;9.93;;;16.10;99.90;;;;;;4936855;28;20730;-75
2021/09/08 02:48:24;;;;;;;10.60;9.60;;;16.10;99.90;;;;;;4936989;29;21274;-74
2021/09/08 02:50:52;;;;;;;10.07;9.27;;;16.10;99.90;;;;;;4940887;28;20668;-76
2021/09/08 02:53:17;;;;;;;10.67;9.73;;;16.20;99.90;;;;;;4941270;28;20192;-74
2021/09/08 02:55:43;;;;;;;10.80;9.90;;;16.10;99.90;;;;;;4935020;28;20721;-74
2021/09/08 02:58:14;;;;;;;11.10;10.00;;;16.20;99.90;;;;;;4942109;28;20223;-75
2021/09/08 03:00:40;;;;;;;11.10;10.00;;;16.20;99.90;;;;;;4941404;29;20302;-74
2021/09/08 03:03:05;;;;;;;9.77;8.87;;;16.20;99.90;;;;;;4943740;28;20611;-75
2021/09/08 03:05:31;;;;;;;10.23;9.33;;;16.20;99.90;;;;;;4941975;28;20228;-75
2021/09/08 03:07:56;;;;;;;10.33;9.37;;;16.30;99.90;;;;;;4946429;28;20192;-74
2021/09/08 03:10:22;;;;;;;10.73;9.73;;;16.30;99.90;;;;;;4949009;28;20262;-74
2021/09/08 03:12:50;;;;;;;10.17;9.17;;;16.30;99.90;;;;;;4949563;29;20682;-74
2021/09/08 03:15:16;;;;;;;10.43;9.57;;;16.30;99.90;;;;;;4948821;28;20234;-74
2021/09/08 03:17:44;;;;;;;10.40;9.50;;;16.30;99.90;;;;;;4931183;29;20611;-74
2021/09/08 03:20:10;;;;;;;10.60;9.63;;;16.30;99.90;;;;;;4932440;28;20614;-75
2021/09/08 03:22:35;;;;;;;11.27;10.27;;;16.30;99.90;;;;;;4949017;29;20689;-76
2021/09/08 03:25:01;;;;;;;10.00;9.10;;;16.30;99.90;;;;;;4948628;28;20721;-75
2021/09/08 03:27:29;;;;;;;12.40;9.43;;;16.30;99.90;;;;;;4947989;28;20192;-74
2021/09/08 03:29:55;;;;;;;9.80;9.00;;;16.30;99.90;;;;;;4950033;29;20278;-75
2021/09/08 03:32:20;;;;;;;10.77;9.67;;;16.30;99.90;;;;;;4948980;28;20679;-74
2021/09/08 03:34:46;;;;;;;12.03;9.77;;;16.30;99.90;;;;;;4948853;28;20238;-74
2021/09/08 03:37:11;;;;;;;10.80;9.70;;;16.20;99.90;;;;;;4931970;29;20199;-75
2021/09/08 03:39:37;;;;;;;10.70;9.67;;;16.20;99.90;;;;;;4947379;28;20191;-73
2021/09/08 03:42:03;;;;;;;9.97;9.00;;;16.20;99.90;;;;;;4946106;28;20221;-74
2021/09/08 03:44:28;;;;;;;10.40;9.43;;;16.20;99.90;;;;;;4948501;28;20656;-74
2021/09/08 03:46:54;;;;;;;9.50;8.70;;;16.20;99.90;;;;;;4949112;28;20618;-75
2021/09/08 03:49:22;;;;;;;11.53;9.37;;;16.20;99.90;;;;;;4930047;29;20283;-75
2021/09/08 03:51:47;;;;;;;10.63;9.63;;;16.20;99.90;;;;;;4945397;28;20420;-74
2021/09/08 03:54:18;;;;;;;8.90;8.00;;;16.20;99.90;;;;;;4929019;29;20658;-74
2021/09/08 03:56:44;;;;;;;9.30;8.37;;;16.20;99.90;;;;;;4946734;28;20214;-74
2021/09/08 03:59:12;;;;;;;10.30;9.30;;;16.20;99.90;;;;;;4940370;28;20623;-74
2021/09/08 04:01:38;;;;;;;10.00;9.10;;;16.10;99.90;;;;;;4943464;28;20306;-74
2021/09/08 04:04:06;;;;;;;9.83;8.40;;;16.10;99.90;;;;;;4942466;28;20622;-74
2021/09/08 04:06:34;;;;;;;10.83;9.83;;;16.00;99.90;;;;;;4945297;28;20729;-75
2021/09/08 04:09:00;;;;;;;9.23;8.20;;;16.00;99.90;;;;;;4947541;28;20614;-74
2021/09/08 04:11:25;;;;;;;10.00;9.10;;;15.90;99.90;;;;;;4948547;28;20656;-74
2021/09/08 04:13:51;;;;;;;10.70;9.67;;;15.90;99.90;;;;;;4949515;29;20229;-74
2021/09/08 04:16:16;;;;;;;14.73;9.30;;;15.90;99.90;;;;;;4944858;28;20270;-75
2021/09/08 04:18:44;;;;;;;11.10;9.47;;;15.80;99.90;;;;;;4948669;28;20206;-74
2021/09/08 04:21:12;;;;;;;11.17;10.10;;;15.80;99.90;;;;;;4948515;28;20223;-74
2021/09/08 04:23:45;;;;;;;10.27;9.27;;;15.70;99.90;;;;;;4938235;28;20744;-73
2021/09/08 04:26:10;;;;;;;10.33;9.33;;;15.70;99.90;;;;;;4945921;28;20650;-73
2021/09/08 04:28:38;;;;;;;9.80;8.90;;;15.70;99.90;;;;;;4949181;29;20607;-74
2021/09/08 04:31:06;;;;;;;12.47;10.30;;;15.60;99.90;;;;;;4949551;28;20536;-74
2021/09/08 04:33:31;;;;;;;10.67;9.67;;;15.60;99.90;;;;;;4947769;29;20623;-74
2021/09/08 04:35:57;;;;;;;11.00;10.00;;;15.60;99.90;;;;;;4938752;28;20667;-75
2021/09/08 04:38:24;;;;;;;10.17;9.20;;;15.60;99.90;;;;;;4940787;29;20195;-75
2021/09/08 04:40:50;;;;;;;10.33;9.43;;;15.60;99.90;;;;;;4939014;28;20227;-74
2021/09/08 04:43:15;;;;;;;10.77;9.80;;;15.70;99.90;;;;;;4936632;28;20634;-76
2021/09/08 04:45:44;;;;;;;12.30;10.00;;;15.70;99.90;;;;;;4940722;28;20681;-74
2021/09/08 04:48:17;;;;;;;11.00;10.00;;;15.80;99.90;;;;;;4941899;28;20281;-75
2021/09/08 04:50:42;;;;;;;10.57;9.57;;;15.80;99.90;;;;;;4940722;28;21218;-75
2021/09/08 04:53:08;;;;;;;10.40;9.50;;;15.80;99.90;;;;;;4941980;29;20623;-74
2021/09/08 04:55:34;;;;;;;10.83;9.70;;;15.80;99.90;;;;;;4938618;28;20243;-75
2021/09/08 04:58:03;;;;;;;10.23;9.23;;;15.80;99.90;;;;;;4936741;28;20430;-74
2021/09/08 05:00:28;;;;;;;12.23;11.00;;;15.80;99.90;;;;;;4941363;28;20666;-74
2021/09/08 05:02:54;;;;;;;11.33;10.23;;;15.80;99.90;;;;;;4939216;28;21177;-74
2021/09/08 05:05:19;;;;;;;11.10;9.97;;;15.80;99.90;;;;;;4946971;28;20604;-75
2021/09/08 05:07:45;;;;;;;12.40;11.10;;;15.90;99.90;;;;;;4967703;28;20187;-74
2021/09/08 05:10:13;;;;;;;11.43;10.33;;;15.90;99.90;;;;;;4948785;28;20705;-75
2021/09/08 05:12:42;;;;;;;12.67;11.47;;;15.90;99.90;;;;;;4938809;28;20270;-74
2021/09/08 05:15:08;;;;;;;12.00;10.80;;;16.00;99.90;;;;;;4929498;28;20844;-74
2021/09/08 05:17:33;;;;;;;11.63;10.50;;;16.00;99.90;;;;;;4937521;28;20639;-74
2021/09/08 05:20:08;;;;;;;11.80;10.70;;;16.10;99.90;;;;;;4922163;28;20624;-74
2021/09/08 05:22:34;;;;;;;12.00;10.80;;;16.10;99.90;;;;;;4944043;28;20206;-74
2021/09/08 05:24:59;;;;;;;11.53;10.43;;;16.10;99.90;;;;;;4946502;28;20631;-74
2021/09/08 05:27:30;;;;;;;12.83;10.80;;;16.10;99.90;;;;;;4944950;28;20233;-74
2021/09/08 05:29:55;;;;;;;12.60;11.37;;;16.10;99.90;;;;;;4924298;28;20219;-74
2021/09/08 05:32:21;;;;;;;12.80;11.50;;;16.20;99.90;;;;;;4948031;28;20690;-75
2021/09/08 05:34:46;;;;;;;12.60;11.30;;;16.10;99.90;;;;;;4927749;28;20250;-75
2021/09/08 05:37:14;;;;;;;13.23;12.03;;;16.10;99.90;;;;;;4950997;28;20206;-74
2021/09/08 05:39:40;;;;;;;12.93;11.60;;;16.10;99.90;;;;;;4950913;29;20198;-74
2021/09/08 05:42:05;;;;;;;12.90;11.53;;;16.10;99.90;;;;;;4949884;28;20638;-74
2021/09/08 05:44:31;;;;;;;14.40;12.97;;;16.20;99.90;;;;;;4941004;28;20575;-74
2021/09/08 05:46:56;;;;;;;13.63;12.30;;;16.20;99.90;;;;;;4933022;29;20678;-75
2021/09/08 05:49:22;;;;;;;14.70;13.20;;;16.20;99.90;;;;;;4951436;29;20647;-74
2021/09/08 05:51:50;;;;;;;13.97;12.37;;;16.30;99.90;;;;;;4950072;28;20290;-74
2021/09/08 05:54:18;;;;;;;13.90;12.30;;;16.30;99.90;;;;;;4950835;29;20651;-74
2021/09/08 05:56:49;;;;;;;14.10;12.80;;;16.30;99.90;;;;;;4949164;28;20610;-74
2021/09/08 05:59:15;;;;;;;15.13;13.53;;;16.30;99.90;;;;;;4951192;28;20607;-74
2021/09/08 06:01:40;;;;;;;15.00;13.00;;;16.40;99.90;;;;;;4948181;28;20651;-74
2021/09/08 06:04:06;;;;;;;13.87;12.47;;;16.40;99.90;;;;;;4934784;28;20570;-75
2021/09/08 06:06:32;;;;;;;14.80;13.20;;;16.50;99.90;;;;;;4922172;28;20247;-75
2021/09/08 06:08:57;;;;;;;15.20;13.50;;;16.50;99.90;;;;;;4948891;29;20223;-75
2021/09/08 06:11:23;;;;;;;14.90;12.17;;;16.50;99.90;;;;;;4944099;28;20230;-74
2021/09/08 06:13:48;;;;;;;15.20;13.60;;;16.60;99.90;;;;;;4948367;29;20196;-74
2021/09/08 06:16:14;;;;;;;16.30;14.03;;;16.60;99.90;;;;;;4948983;28;20266;-74
2021/09/08 06:18:40;;;;;;;17.70;14.20;;;16.70;99.90;;;;;;4949643;29;20201;-74
2021/09/08 06:21:05;;;;;;;15.73;13.30;;;16.70;99.90;;;;;;4930416;29;20203;-74
2021/09/08 06:23:31;;;;;;;14.80;13.30;;;16.80;99.90;;;;;;4948751;29;20995;-74
2021/09/08 06:25:56;;;;;;;17.40;14.10;;;16.80;99.90;;;;;;4947467;28;20222;-74
2021/09/08 06:28:23;;;;;;;15.30;13.90;;;16.90;99.90;;;;;;4946546;28;20198;-75
2021/09/08 06:30:49;;;;;;;16.90;14.77;;;16.90;99.90;;;;;;4948898;28;20195;-74
2021/09/08 06:33:15;;;;;;;17.53;13.50;;;16.90;99.90;;;;;;4948757;29;20690;-74
2021/09/08 06:35:40;;;;;;;16.47;13.60;;;17.00;99.90;;;;;;4947327;28;20321;-74
2021/09/08 06:38:08;;;;;;;15.63;13.93;;;17.00;99.90;;;;;;4949501;29;20612;-74
2021/09/08 06:40:34;;;;;;;15.83;13.90;;;17.10;99.90;;;;;;4939680;29;20219;-74
2021/09/08 06:43:00;;;;;;;14.97;13.43;;;17.20;99.90;;;;;;4951703;28;21190;-74
2021/09/08 06:45:25;;;;;;;14.00;12.80;;;17.20;99.90;;;;;;4950810;28;20654;-74
2021/09/08 06:47:51;;;;;;;14.83;13.30;;;17.30;99.90;;;;;;4952221;29;20259;-74
2021/09/08 06:50:16;;;;;;;16.67;13.73;;;17.30;99.90;;;;;;4953839;28;20215;-74
2021/09/08 06:52:42;;;;;;;15.27;13.67;;;17.40;99.90;;;;;;4953085;29;20647;-75
2021/09/08 06:55:08;;;;;;;14.77;13.37;;;17.40;99.90;;;;;;4951870;28;20230;-74
2021/09/08 06:57:33;;;;;;;16.83;15.17;;;17.50;99.90;;;;;;4953892;29;20561;-74
2021/09/08 07:00:01;;;;;;;15.40;13.97;;;17.50;99.90;;;;;;4941373;28;20223;-74
2021/09/08 07:02:27;;;;;;;15.57;14.07;;;17.60;99.90;;;;;;4934740;29;20249;-75
2021/09/08 07:04:52;;;;;;;15.70;14.20;;;17.60;99.90;;;;;;4947606;28;20623;-74
2021/09/08 07:07:20;;;;;;;16.07;14.53;;;17.70;99.90;;;;;;4952607;28;20188;-74
2021/09/08 07:09:46;;;;;;;15.70;14.10;;;17.70;99.90;;;;;;4952718;29;20211;-74
2021/09/08 07:12:12;;;;;;;14.87;13.30;;;17.70;99.90;;;;;;4940227;29;20666;-74
2021/09/08 07:14:37;;;;;;;16.60;14.33;;;17.80;99.90;;;;;;4951808;28;21244;-74
2021/09/08 07:17:03;;;;;;;17.27;15.10;;;17.90;99.90;;;;;;4952587;29;20197;-75
2021/09/08 07:19:29;;;;;;;15.47;13.80;;;17.90;99.90;;;;;;4953436;29;20192;-74
2021/09/08 07:21:54;;;;;;;19.70;15.00;;;17.90;99.90;;;;;;4950336;28;20278;-74
2021/09/08 07:24:23;;;;;;;14.23;12.80;;;18.00;99.90;;;;;;4952663;29;20198;-75
2021/09/08 07:26:48;;;;;;;15.13;13.40;;;18.10;99.90;;;;;;4926656;29;20324;-74
2021/09/08 07:29:13;;;;;;;18.70;15.07;;;18.20;99.90;;;;;;4952467;29;21064;-75
2021/09/08 07:31:39;;;;;;;16.00;14.40;;;18.20;99.90;;;;;;4950692;28;20207;-74
2021/09/08 07:34:05;;;;;;;15.67;14.07;;;18.30;99.90;;;;;;4950808;29;20274;-75
2021/09/08 07:36:30;;;;;;;15.43;13.83;;;18.30;99.90;;;;;;4951528;28;20589;-74
2021/09/08 07:38:56;;;;;;;16.10;14.40;;;18.40;99.90;;;;;;4950568;28;20189;-75
2021/09/08 07:41:22;;;;;;;17.03;14.17;;;18.50;99.90;;;;;;4948846;28;20199;-74
2021/09/08 07:43:48;;;;;;;15.30;13.70;;;18.60;99.90;;;;;;4934867;29;20599;-75
2021/09/08 07:46:15;;;;;;;17.67;14.77;;;18.60;99.90;;;;;;4952256;28;20215;-75
2021/09/08 07:48:41;;;;;;;14.47;13.10;;;18.70;99.90;;;;;;4951259;29;21198;-75
2021/09/08 07:51:07;;;;;;;15.20;13.80;;;18.80;99.90;;;;;;4950220;28;20642;-74
2021/09/08 07:53:34;;;;;;;16.70;12.83;;;18.90;99.90;;;;;;4951326;28;21256;-74
2021/09/08 07:56:00;;;;;;;14.77;13.27;;;18.90;99.90;;;;;;4952566;28;20309;-74
2021/09/08 07:58:25;;;;;;;14.13;12.73;;;19.00;99.90;;;;;;4970751;29;20587;-75
2021/09/08 08:00:54;;;;;;;12.97;11.83;;;19.00;99.90;;;;;;4972251;28;20212;-74
2021/09/08 08:03:21;;;;;;;13.33;12.00;;;19.10;99.90;;;;;;4952291;29;20200;-75
2021/09/08 08:05:47;;;;;;;13.83;12.53;;;19.20;99.90;;;;;;4949340;28;21164;-74
2021/09/08 08:08:13;;;;;;;14.43;13.13;;;19.20;99.90;;;;;;4950525;28;20665;-75
2021/09/08 08:10:39;;;;;;;14.40;12.87;;;19.40;99.90;;;;;;4950118;28;20227;-75
2021/09/08 08:13:04;;;;;;;13.17;12.00;;;19.50;99.90;;;;;;4949254;28;20716;-76
2021/09/08 08:15:30;;;;;;;13.80;12.50;;;19.50;99.90;;;;;;4948673;28;20234;-75
2021/09/08 08:17:55;;;;;;;14.43;13.10;;;19.60;99.90;;;;;;4952082;29;20191;-74
2021/09/08 08:20:21;;;;;;;14.93;13.10;;;19.70;99.90;;;;;;4948957;28;20215;-76
2021/09/08 08:22:47;;;;;;;15.03;11.93;;;19.80;99.90;;;;;;4950568;29;20191;-76
2021/09/08 08:25:17;;;;;;;12.97;11.77;;;19.90;99.90;;;;;;4949896;28;20219;-75
2021/09/08 08:27:43;;;;;;;13.13;11.83;;;19.90;99.90;;;;;;4950624;29;20763;-74
2021/09/08 08:30:11;;;;;;;12.60;11.50;;;20.00;99.90;;;;;;4931371;28;20710;-75
2021/09/08 08:32:36;;;;;;;13.40;12.00;;;20.10;99.90;;;;;;4951463;28;20713;-75
2021/09/08 08:35:03;;;;;;;12.43;11.30;;;20.20;99.90;;;;;;4951090;28;20761;-75
2021/09/08 08:37:29;;;;;;;11.97;10.80;;;20.30;99.90;;;;;;4949868;28;20188;-74
2021/09/08 08:39:55;;;;;;;12.13;11.00;;;20.30;99.90;;;;;;4940678;28;20615;-74
2021/09/08 08:42:23;;;;;;;14.30;11.80;;;20.30;99.90;;;;;;4932063;29;20226;-74
2021/09/08 08:44:50;;;;;;;12.57;11.27;;;20.30;99.90;;;;;;4949373;28;20622;-74
2021/09/08 08:47:17;;;;;;;12.07;10.87;;;20.50;99.90;;;;;;4950066;29;20626;-76
2021/09/08 08:49:43;;;;;;;12.03;10.83;;;20.60;99.90;;;;;;4948412;29;20618;-74
2021/09/08 08:52:09;;;;;;;12.40;9.80;;;20.70;99.90;;;;;;4950300;28;20638;-75
2021/09/08 08:54:35;;;;;;;11.77;10.77;;;20.80;99.90;;;;;;4930653;28;21702;-75
2021/09/08 08:57:01;;;;;;;11.63;10.53;;;21.00;99.90;;;;;;4931990;29;20183;-75
2021/09/08 08:59:27;;;;;;;11.70;10.50;;;21.00;99.90;;;;;;4947355;28;20703;-74
2021/09/08 09:01:52;;;;;;;11.00;10.00;;;20.90;99.90;;;;;;4948970;28;20792;-74
2021/09/08 09:04:18;;;;;;;11.70;10.50;;;21.00;99.90;;;;;;4947948;28;20199;-74
2021/09/08 09:06:49;;;;;;;12.10;10.23;;;21.00;99.90;;;;;;4933573;28;20450;-74
2021/09/08 09:09:16;;;;;;;11.50;10.40;;;21.00;99.90;;;;;;4942398;28;20187;-76
2021/09/08 09:11:45;;;;;;;10.43;9.43;;;21.10;99.90;;;;;;4950446;28;20999;-75
2021/09/08 09:14:12;;;;;;;12.23;10.10;;;21.20;99.90;;;;;;4948977;29;20713;-74
2021/09/08 09:16:40;;;;;;;10.97;9.83;;;21.20;99.90;;;;;;4949768;28;20611;-74
2021/09/08 09:19:11;;;;;;;11.30;10.30;;;21.30;99.90;;;;;;4946909;28;20605;-75
2021/09/08 09:21:37;;;;;;;10.90;9.90;;;21.30;99.90;;;;;;4931273;29;20766;-74
2021/09/08 09:24:05;;;;;;;11.17;9.80;;;21.40;99.90;;;;;;4950263;29;20591;-75
2021/09/08 09:26:33;;;;;;;11.33;10.27;;;21.60;99.90;;;;;;4946669;28;20721;-75
2021/09/08 09:29:20;;;;;;;13.50;10.30;;;21.60;99.90;;;;;;4948298;29;21245;-76
2021/09/08 09:31:57;;;;;;;10.80;9.20;;;21.70;99.90;;;;;;4948488;28;20638;-74
2021/09/08 09:34:26;;;;;;;10.67;9.57;;;21.70;99.90;;;;;;4945234;28;20643;-75
2021/09/08 09:36:57;;;;;;;12.07;10.87;;;21.80;99.90;;;;;;4949547;29;20615;-75
2021/09/08 09:39:28;;;;;;;11.53;10.43;;;21.90;99.90;;;;;;4924934;29;20617;-74
2021/09/08 09:41:57;;;;;;;11.13;10.03;;;22.00;99.90;;;;;;4948706;28;20707;-74
2021/09/08 09:44:22;;;;;;;10.83;9.73;;;22.20;99.90;;;;;;4946421;28;20627;-73
2021/09/08 09:46:49;;;;;;;10.70;9.80;;;22.30;99.90;;;;;;4949307;29;20610;-74
2021/09/08 09:49:15;;;;;;;11.73;10.63;;;22.40;99.90;;;;;;4948205;28;20199;-74
2021/09/08 09:51:42;;;;;;;10.90;9.80;;;22.50;99.90;;;;;;4946907;28;20647;-75
2021/09/08 09:54:07;;;;;;;12.47;10.97;;;22.60;99.90;;;;;;4949400;29;20705;-75
2021/09/08 09:56:33;;;;;;;10.50;9.60;;;22.70;99.90;;;;;;4947982;28;20670;-75
2021/09/08 09:58:59;;;;;;;11.17;10.27;;;22.70;99.90;;;;;;4949881;28;20187;-74
2021/09/08 10:01:25;;;;;;;12.47;10.07;;;22.70;99.90;;;;;;4950815;28;20741;-74
2021/09/08 10:03:52;;;;;;;13.30;9.87;;;22.80;99.90;;;;;;4949528;28;20648;-75
2021/09/08 10:06:18;;;;;;;10.60;9.50;;;22.80;99.90;;;;;;4925082;28;20619;-74
2021/09/08 10:08:56;;;;;;;10.47;9.57;;;22.90;99.90;;;;;;4944877;28;20635;-75
2021/09/08 10:11:24;;;;;;;10.90;9.90;;;23.00;99.90;;;;;;4932875;29;20666;-76
2021/09/08 10:13:53;;;;;;;11.57;10.40;;;23.10;99.90;;;;;;4949669;29;20607;-75
2021/09/08 10:16:22;;;;;;;10.43;9.43;;;23.10;99.90;;;;;;4930188;28;20650;-75
2021/09/08 10:18:48;;;;;;;10.07;9.17;;;23.20;99.90;;;;;;4949173;28;20735;-75
2021/09/08 10:21:19;;;;;;;10.70;9.70;;;23.30;99.90;;;;;;4950122;28;20749;-75
2021/09/08 10:23:54;;;;;;;11.17;10.17;;;23.30;99.90;;;;;;4948211;29;20954;-74
2021/09/08 10:26:28;;;;;;;11.00;10.10;;;23.40;99.90;;;;;;4945507;28;20634;-77
2021/09/08 10:28:54;;;;;;;9.57;8.77;;;23.40;99.90;;;;;;4948835;29;20746;-74
2021/09/08 10:31:20;;;;;;;10.20;9.03;;;23.50;99.90;;;;;;4948626;28;20649;-74
2021/09/08 10:33:46;;;;;;;11.57;10.37;;;23.50;99.90;;;;;;4948894;29;20718;-74
2021/09/08 10:36:14;;;;;;;9.03;8.33;;;23.50;99.90;;;;;;4939240;28;20635;-74
2021/09/08 10:38:41;;;;;;;9.70;8.90;;;23.60;99.90;;;;;;4949313;29;20259;-75
2021/09/08 10:41:08;;;;;;;10.13;9.13;;;23.70;99.90;;;;;;4949081;28;20710;-75
2021/09/08 10:43:36;;;;;;;9.53;8.73;;;23.70;99.90;;;;;;4949207;28;20603;-74
2021/09/08 10:46:04;;;;;;;8.50;7.80;;;23.80;99.90;;;;;;4947851;28;20639;-75
2021/09/08 10:48:38;;;;;;;9.70;8.33;;;23.80;99.90;;;;;;4949069;28;20627;-75
2021/09/08 10:51:05;;;;;;;8.83;8.03;;;24.00;99.90;;;;;;4953789;28;20633;-76
2021/09/08 10:53:33;;;;;;;8.17;7.53;;;24.00;99.90;;;;;;4968439;28;20642;-76
2021/09/08 10:55:59;;;;;;;8.70;7.90;;;24.20;99.90;;;;;;4961415;28;20660;-75
2021/09/08 10:58:55;;;;;;;8.63;7.60;;;24.20;99.90;;;;;;4955166;29;20618;-75
2021/09/08 11:01:21;;;;;;;8.30;7.50;;;24.30;99.90;;;;;;4949890;28;20681;-76
2021/09/08 11:03:47;;;;;;;8.47;7.77;;;24.40;99.90;;;;;;4948987;28;21063;-75
2021/09/08 11:06:13;;;;;;;8.37;7.67;;;24.40;99.90;;;;;;4932382;28;20639;-75
2021/09/08 11:08:38;;;;;;;8.30;7.60;;;24.60;99.90;;;;;;4947428;28;20626;-74
2021/09/08 11:11:11;;;;;;;8.90;8.20;;;24.60;99.90;;;;;;4947660;28;20363;-75
2021/09/08 11:13:38;;;;;;;9.20;8.40;;;24.80;99.90;;;;;;4946647;29;20278;-75
2021/09/08 11:16:22;;;;;;;9.33;8.43;;;24.80;99.90;;;;;;4945972;28;20655;-75
2021/09/08 11:18:49;;;;;;;8.97;8.07;;;24.90;99.90;;;;;;4929310;29;20611;-75
2021/09/08 11:21:16;;;;;;;8.87;8.07;;;25.00;99.90;;;;;;4929686;29;20758;-75
2021/09/08 11:23:42;;;;;;;8.03;7.43;;;25.10;99.90;;;;;;4943999;28;20634;-75
2021/09/08 11:26:11;;;;;;;8.57;7.87;;;25.10;99.90;;;;;;4944888;28;21366;-76
2021/09/08 11:28:39;;;;;;;7.97;7.27;;;25.10;99.90;;;;;;4931854;29;20642;-75
2021/09/08 11:31:16;;;;;;;8.10;7.40;;;25.30;99.90;;;;;;4928357;29;21134;-76
2021/09/08 11:33:43;;;;;;;8.90;8.00;;;25.30;99.90;;;;;;4947559;28;21018;-75
2021/09/08 11:36:19;;;;;;;8.27;7.57;;;25.40;99.90;;;;;;4932133;28;21240;-76
2021/09/08 11:38:56;;;;;;;7.57;6.97;;;25.60;99.90;;;;;;4947171;28;20638;-76
2021/09/08 11:41:22;;;;;;;8.67;7.07;;;25.70;99.90;;;;;;4946844;28;20659;-76
2021/09/08 11:43:49;;;;;;;7.37;6.80;;;25.80;99.90;;;;;;4929468;29;20627;-74
2021/09/08 11:46:24;;;;;;;9.20;7.33;;;25.90;99.90;;;;;;4947208;28;20227;-75
2021/09/08 11:48:53;;;;;;;7.30;6.73;;;26.10;99.90;;;;;;4946474;28;21523;-75
2021/09/08 11:51:22;;;;;;;8.90;7.50;;;26.10;99.90;;;;;;4923221;29;20814;-75
2021/09/08 11:53:49;;;;;;;8.63;7.60;;;26.10;99.90;;;;;;4947481;29;20618;-75
2021/09/08 11:56:26;;;;;;;7.10;6.53;;;26.20;99.90;;;;;;4946253;28;21218;-75
2021/09/08 11:59:01;;;;;;;6.37;5.87;;;26.20;99.90;;;;;;4948483;29;20629;-76
2021/09/08 12:01:35;;;;;;;10.10;6.57;;;26.30;99.90;;;;;;4947812;28;20725;-74
2021/09/08 12:04:04;;;;;;;6.90;6.30;;;26.30;99.90;;;;;;4946049;28;20723;-75
2021/09/08 12:06:32;;;;;;;7.10;6.50;;;26.40;99.90;;;;;;4948171;28;20643;-75
2021/09/08 12:09:11;;;;;;;8.63;7.17;;;26.60;99.90;;;;;;4948667;29;20626;-75
2021/09/08 12:11:46;;;;;;;8.47;7.77;;;26.70;99.90;;;;;;4932121;29;20662;-75
2021/09/08 12:14:18;;;;;;;8.43;7.73;;;26.60;99.90;;;;;;4946290;28;20626;-75
2021/09/08 12:17:05;;;;;;;8.57;7.97;;;26.60;99.90;;;;;;4947552;28;20635;-74
2021/09/08 12:19:31;;;;;;;8.70;8.00;;;26.70;99.90;;;;;;4934183;29;20634;-75
2021/09/08 12:22:19;;;;;;;9.07;7.63;;;26.70;99.90;;;;;;4949197;28;21212;-76
2021/09/08 12:24:55;;;;;;;8.30;7.70;;;26.70;99.90;;;;;;4940231;28;20647;-75
2021/09/08 12:27:36;;;;;;;8.70;6.80;;;26.80;99.90;;;;;;4948441;28;21181;-76
2021/09/08 12:30:14;;;;;;;7.57;6.97;;;26.90;99.90;;;;;;4949427;28;20607;-78
2021/09/08 12:32:59;;;;;;;8.33;7.63;;;27.10;99.90;;;;;;4948578;28;21190;-76
2021/09/08 12:35:44;;;;;;;7.97;7.37;;;27.30;99.90;;;;;;4931264;28;20643;-76